sensor_id;sensor_type;location;lat;lon;timestamp;P1;durP1;ratioP1;P2;durP2;ratioP2
928;SDS011;451;47.988;7.842;2022-08-19T00:03:39;13.50;;;10.37;;
928;SDS011;451;47.988;7.842;2022-08-19T00:12:41;12.27;;;10.00;;
928;SDS011;451;47.988;7.842;2022-08-19T00:21:43;17.90;;;11.10;;
928;SDS011;451;47.988;7.842;2022-08-19T00:30:45;15.40;;;12.10;;
928;SDS011;451;47.988;7.842;2022-08-19T00:39:46;12.60;;;10.43;;
928;SDS011;451;47.988;7.842;2022-08-19T00:48:48;14.10;;;11.50;;
928;SDS011;451;47.988;7.842;2022-08-19T00:57:58;13.30;;;10.90;;
928;SDS011;451;47.988;7.842;2022-08-19T01:07:02;16.27;;;11.80;;
928;SDS011;451;47.988;7.842;2022-08-19T01:16:06;17.50;;;13.40;;
928;SDS011;451;47.988;7.842;2022-08-19T01:25:12;16.87;;;12.53;;
928;SDS011;451;47.988;7.842;2022-08-19T01:34:18;19.40;;;14.10;;
928;SDS011;451;47.988;7.842;2022-08-19T01:43:20;18.27;;;12.90;;
928;SDS011;451;47.988;7.842;2022-08-19T01:52:22;15.00;;;12.73;;
928;SDS011;451;47.988;7.842;2022-08-19T02:01:23;17.87;;;13.23;;
928;SDS011;451;47.988;7.842;2022-08-19T02:10:25;16.67;;;13.87;;
928;SDS011;451;47.988;7.842;2022-08-19T02:19:27;17.30;;;13.33;;
928;SDS011;451;47.988;7.842;2022-08-19T02:28:29;15.27;;;12.70;;
928;SDS011;451;47.988;7.842;2022-08-19T02:37:30;18.00;;;13.53;;
928;SDS011;451;47.988;7.842;2022-08-19T02:46:51;16.60;;;12.47;;
928;SDS011;451;47.988;7.842;2022-08-19T02:55:52;16.37;;;13.10;;
928;SDS011;451;47.988;7.842;2022-08-19T03:04:55;16.40;;;12.77;;
928;SDS011;451;47.988;7.842;2022-08-19T03:13:57;21.10;;;14.27;;
928;SDS011;451;47.988;7.842;2022-08-19T03:23:02;16.07;;;13.03;;
928;SDS011;451;47.988;7.842;2022-08-19T03:32:04;18.47;;;14.57;;
928;SDS011;451;47.988;7.842;2022-08-19T03:41:09;17.80;;;15.33;;
928;SDS011;451;47.988;7.842;2022-08-19T03:50:13;21.53;;;16.00;;
928;SDS011;451;47.988;7.842;2022-08-19T03:59:28;17.90;;;14.00;;
928;SDS011;451;47.988;7.842;2022-08-19T04:08:37;18.93;;;15.07;;
928;SDS011;451;47.988;7.842;2022-08-19T04:17:38;18.93;;;14.90;;
928;SDS011;451;47.988;7.842;2022-08-19T04:26:41;22.17;;;16.00;;
928;SDS011;451;47.988;7.842;2022-08-19T04:35:45;19.70;;;15.00;;
928;SDS011;451;47.988;7.842;2022-08-19T04:44:49;17.83;;;13.67;;
928;SDS011;451;47.988;7.842;2022-08-19T04:53:52;18.60;;;14.60;;
928;SDS011;451;47.988;7.842;2022-08-19T05:02:53;21.20;;;15.10;;
928;SDS011;451;47.988;7.842;2022-08-19T05:11:55;20.30;;;15.50;;
928;SDS011;451;47.988;7.842;2022-08-19T05:20:57;18.53;;;13.93;;
928;SDS011;451;47.988;7.842;2022-08-19T05:30:17;19.43;;;15.70;;
928;SDS011;451;47.988;7.842;2022-08-19T05:39:20;18.80;;;14.90;;
928;SDS011;451;47.988;7.842;2022-08-19T05:48:22;19.57;;;15.00;;
928;SDS011;451;47.988;7.842;2022-08-19T05:57:24;19.80;;;15.00;;
928;SDS011;451;47.988;7.842;2022-08-19T06:06:25;17.87;;;14.53;;
928;SDS011;451;47.988;7.842;2022-08-19T06:15:27;19.07;;;14.73;;
928;SDS011;451;47.988;7.842;2022-08-19T06:24:29;19.03;;;14.63;;
928;SDS011;451;47.988;7.842;2022-08-19T06:33:32;18.30;;;13.90;;
928;SDS011;451;47.988;7.842;2022-08-19T06:42:34;17.63;;;13.90;;
928;SDS011;451;47.988;7.842;2022-08-19T06:51:38;15.63;;;13.40;;
928;SDS011;451;47.988;7.842;2022-08-19T07:00:40;15.03;;;13.43;;
928;SDS011;451;47.988;7.842;2022-08-19T07:09:43;15.23;;;13.37;;
928;SDS011;451;47.988;7.842;2022-08-19T07:18:46;18.13;;;14.20;;
928;SDS011;451;47.988;7.842;2022-08-19T07:27:49;18.53;;;15.30;;
928;SDS011;451;47.988;7.842;2022-08-19T07:36:52;18.03;;;15.27;;
928;SDS011;451;47.988;7.842;2022-08-19T07:45:55;20.70;;;16.20;;
928;SDS011;451;47.988;7.842;2022-08-19T07:54:59;19.70;;;14.73;;
928;SDS011;451;47.988;7.842;2022-08-19T08:04:05;19.20;;;15.47;;
928;SDS011;451;47.988;7.842;2022-08-19T08:13:26;20.27;;;17.40;;
928;SDS011;451;47.988;7.842;2022-08-19T08:22:30;22.97;;;18.93;;
928;SDS011;451;47.988;7.842;2022-08-19T08:31:50;24.50;;;19.80;;
928;SDS011;451;47.988;7.842;2022-08-19T08:40:53;24.60;;;19.87;;
928;SDS011;451;47.988;7.842;2022-08-19T08:59:19;24.03;;;20.07;;
928;SDS011;451;47.988;7.842;2022-08-19T09:17:38;34.07;;;21.60;;
928;SDS011;451;47.988;7.842;2022-08-19T09:26:40;23.77;;;21.20;;
928;SDS011;451;47.988;7.842;2022-08-19T09:35:41;25.67;;;20.07;;
928;SDS011;451;47.988;7.842;2022-08-19T09:44:43;24.10;;;20.33;;
928;SDS011;451;47.988;7.842;2022-08-19T09:53:46;23.90;;;19.90;;
928;SDS011;451;47.988;7.842;2022-08-19T10:02:51;23.87;;;19.90;;
928;SDS011;451;47.988;7.842;2022-08-19T10:11:52;24.70;;;20.80;;
928;SDS011;451;47.988;7.842;2022-08-19T10:21:02;26.60;;;20.30;;
928;SDS011;451;47.988;7.842;2022-08-19T10:30:09;23.07;;;20.50;;
928;SDS011;451;47.988;7.842;2022-08-19T10:39:12;28.90;;;21.43;;
928;SDS011;451;47.988;7.842;2022-08-19T10:48:14;24.87;;;19.63;;
928;SDS011;451;47.988;7.842;2022-08-19T10:57:15;25.03;;;21.13;;
928;SDS011;451;47.988;7.842;2022-08-19T11:06:17;26.87;;;21.83;;
928;SDS011;451;47.988;7.842;2022-08-19T11:15:20;25.30;;;20.53;;
928;SDS011;451;47.988;7.842;2022-08-19T11:24:23;25.80;;;20.50;;
928;SDS011;451;47.988;7.842;2022-08-19T11:33:26;28.10;;;22.73;;
928;SDS011;451;47.988;7.842;2022-08-19T11:42:28;26.83;;;21.30;;
928;SDS011;451;47.988;7.842;2022-08-19T11:51:48;27.53;;;21.37;;
928;SDS011;451;47.988;7.842;2022-08-19T12:00:52;32.80;;;25.23;;
928;SDS011;451;47.988;7.842;2022-08-19T12:09:54;23.67;;;21.10;;
928;SDS011;451;47.988;7.842;2022-08-19T12:18:55;24.57;;;20.23;;
928;SDS011;451;47.988;7.842;2022-08-19T12:27:59;23.43;;;20.17;;
928;SDS011;451;47.988;7.842;2022-08-19T12:37:01;24.80;;;21.50;;
928;SDS011;451;47.988;7.842;2022-08-19T12:46:04;22.63;;;19.20;;
928;SDS011;451;47.988;7.842;2022-08-19T12:55:07;24.87;;;21.07;;
928;SDS011;451;47.988;7.842;2022-08-19T13:04:10;20.77;;;18.60;;
928;SDS011;451;47.988;7.842;2022-08-19T13:13:12;20.93;;;18.70;;
928;SDS011;451;47.988;7.842;2022-08-19T13:22:14;22.57;;;20.20;;
928;SDS011;451;47.988;7.842;2022-08-19T13:31:17;20.93;;;18.80;;
928;SDS011;451;47.988;7.842;2022-08-19T13:40:39;20.50;;;18.30;;
928;SDS011;451;47.988;7.842;2022-08-19T13:49:41;19.03;;;17.03;;
928;SDS011;451;47.988;7.842;2022-08-19T13:58:43;19.70;;;17.70;;
928;SDS011;451;47.988;7.842;2022-08-19T14:07:45;17.77;;;16.17;;
928;SDS011;451;47.988;7.842;2022-08-19T14:16:47;18.33;;;16.50;;
928;SDS011;451;47.988;7.842;2022-08-19T14:25:49;17.60;;;15.80;;
928;SDS011;451;47.988;7.842;2022-08-19T14:34:51;18.20;;;16.30;;
928;SDS011;451;47.988;7.842;2022-08-19T14:43:53;21.93;;;17.80;;
928;SDS011;451;47.988;7.842;2022-08-19T14:53:04;20.80;;;17.97;;
928;SDS011;451;47.988;7.842;2022-08-19T15:02:08;19.67;;;17.67;;
928;SDS011;451;47.988;7.842;2022-08-19T15:11:13;19.20;;;17.20;;
928;SDS011;451;47.988;7.842;2022-08-19T15:20:18;17.70;;;15.90;;
928;SDS011;451;47.988;7.842;2022-08-19T15:29:22;17.17;;;15.47;;
928;SDS011;451;47.988;7.842;2022-08-19T15:38:25;16.37;;;14.73;;
928;SDS011;451;47.988;7.842;2022-08-19T15:47:29;16.63;;;15.00;;
928;SDS011;451;47.988;7.842;2022-08-19T15:56:31;19.50;;;17.50;;
928;SDS011;451;47.988;7.842;2022-08-19T16:05:51;18.53;;;16.57;;
928;SDS011;451;47.988;7.842;2022-08-19T16:15:12;14.70;;;13.30;;
928;SDS011;451;47.988;7.842;2022-08-19T16:24:16;16.33;;;14.60;;
928;SDS011;451;47.988;7.842;2022-08-19T16:33:19;15.93;;;14.37;;
928;SDS011;451;47.988;7.842;2022-08-19T16:42:20;17.63;;;14.87;;
928;SDS011;451;47.988;7.842;2022-08-19T16:51:22;14.07;;;12.63;;
928;SDS011;451;47.988;7.842;2022-08-19T17:00:24;15.73;;;13.63;;
928;SDS011;451;47.988;7.842;2022-08-19T17:09:26;16.00;;;14.40;;
928;SDS011;451;47.988;7.842;2022-08-19T17:18:28;14.70;;;13.20;;
928;SDS011;451;47.988;7.842;2022-08-19T17:27:32;15.03;;;13.53;;
928;SDS011;451;47.988;7.842;2022-08-19T17:36:34;16.30;;;14.70;;
928;SDS011;451;47.988;7.842;2022-08-19T17:45:36;16.43;;;14.80;;
928;SDS011;451;47.988;7.842;2022-08-19T17:54:39;15.83;;;14.27;;
928;SDS011;451;47.988;7.842;2022-08-19T18:03:41;15.90;;;14.23;;
928;SDS011;451;47.988;7.842;2022-08-19T18:12:43;17.27;;;15.67;;
928;SDS011;451;47.988;7.842;2022-08-19T18:21:45;17.43;;;14.40;;
928;SDS011;451;47.988;7.842;2022-08-19T18:30:47;19.27;;;17.17;;
928;SDS011;451;47.988;7.842;2022-08-19T18:39:49;20.17;;;15.40;;
928;SDS011;451;47.988;7.842;2022-08-19T18:49:10;17.30;;;15.43;;
928;SDS011;451;47.988;7.842;2022-08-19T18:58:15;17.13;;;15.30;;
928;SDS011;451;47.988;7.842;2022-08-19T19:07:17;17.60;;;14.70;;
928;SDS011;451;47.988;7.842;2022-08-19T19:16:19;17.03;;;14.33;;
928;SDS011;451;47.988;7.842;2022-08-19T19:25:22;17.50;;;15.23;;
928;SDS011;451;47.988;7.842;2022-08-19T19:34:23;16.20;;;14.53;;
928;SDS011;451;47.988;7.842;2022-08-19T19:43:25;16.87;;;14.13;;
928;SDS011;451;47.988;7.842;2022-08-19T19:52:28;15.60;;;14.00;;
928;SDS011;451;47.988;7.842;2022-08-19T20:01:31;18.80;;;14.70;;
928;SDS011;451;47.988;7.842;2022-08-19T20:10:33;17.77;;;14.90;;
928;SDS011;451;47.988;7.842;2022-08-19T20:19:35;16.27;;;13.90;;
928;SDS011;451;47.988;7.842;2022-08-19T20:28:37;16.80;;;13.47;;
928;SDS011;451;47.988;7.842;2022-08-19T20:37:38;18.47;;;14.70;;
928;SDS011;451;47.988;7.842;2022-08-19T20:46:41;17.20;;;14.10;;
928;SDS011;451;47.988;7.842;2022-08-19T20:55:43;20.40;;;16.60;;
928;SDS011;451;47.988;7.842;2022-08-19T21:04:46;18.90;;;15.90;;
928;SDS011;451;47.988;7.842;2022-08-19T21:13:48;19.03;;;16.50;;
928;SDS011;451;47.988;7.842;2022-08-19T21:22:50;26.63;;;17.93;;
928;SDS011;451;47.988;7.842;2022-08-19T21:31:51;19.80;;;16.27;;
928;SDS011;451;47.988;7.842;2022-08-19T21:40:53;22.50;;;17.50;;
928;SDS011;451;47.988;7.842;2022-08-19T21:49:56;20.90;;;16.60;;
928;SDS011;451;47.988;7.842;2022-08-19T21:58:57;18.10;;;15.27;;
928;SDS011;451;47.988;7.842;2022-08-19T22:08:00;19.17;;;16.20;;
928;SDS011;451;47.988;7.842;2022-08-19T22:17:02;17.13;;;15.30;;
928;SDS011;451;47.988;7.842;2022-08-19T22:26:04;20.10;;;15.13;;
928;SDS011;451;47.988;7.842;2022-08-19T22:35:07;23.83;;;17.97;;
928;SDS011;451;47.988;7.842;2022-08-19T22:44:08;18.63;;;16.43;;
928;SDS011;451;47.988;7.842;2022-08-19T22:53:11;19.67;;;16.30;;
928;SDS011;451;47.988;7.842;2022-08-19T23:02:28;17.47;;;14.77;;
928;SDS011;451;47.988;7.842;2022-08-19T23:11:33;20.57;;;16.93;;
928;SDS011;451;47.988;7.842;2022-08-19T23:20:37;22.03;;;16.63;;
928;SDS011;451;47.988;7.842;2022-08-19T23:29:40;20.57;;;16.27;;
928;SDS011;451;47.988;7.842;2022-08-19T23:39:00;22.30;;;16.80;;
928;SDS011;451;47.988;7.842;2022-08-19T23:48:02;21.40;;;14.97;;
928;SDS011;451;47.988;7.842;2022-08-19T23:57:04;21.20;;;15.97;;
